createdAt,value
2022-10-29T00:04:13.601Z,4.23
2022-10-29T00:09:15.331Z,4.43
2022-10-29T00:14:17.224Z,4.90
2022-10-29T00:19:18.969Z,4.30
2022-10-29T00:24:20.590Z,4.90
2022-10-29T00:29:22.250Z,4.50
2022-10-29T00:34:23.818Z,4.30
2022-10-29T00:39:25.524Z,4.00
2022-10-29T00:44:35.728Z,3.93
2022-10-29T00:49:39.642Z,4.83
2022-10-29T00:54:43.018Z,4.47
2022-10-29T00:59:44.959Z,4.53
2022-10-29T01:04:46.895Z,3.83
2022-10-29T01:09:49.010Z,4.20
2022-10-29T01:15:12.900Z,3.50
2022-10-29T01:20:36.676Z,3.73
2022-10-29T01:25:47.236Z,3.67
2022-10-29T01:31:00.217Z,3.60
2022-10-29T01:36:27.339Z,4.20
2022-10-29T01:41:34.504Z,3.93
2022-10-29T01:46:48.761Z,3.93
2022-10-29T01:51:50.781Z,3.83
2022-10-29T01:56:56.712Z,4.00
2022-10-29T02:02:06.821Z,4.03
2022-10-29T02:07:27.215Z,3.87
2022-10-29T02:12:37.711Z,3.40
2022-10-29T02:17:39.659Z,4.27
2022-10-29T02:22:41.367Z,4.17
2022-10-29T02:27:43.027Z,4.03
2022-10-29T02:32:44.669Z,4.20
2022-10-29T02:37:46.164Z,3.63
2022-10-29T02:42:47.754Z,3.73
2022-10-29T02:47:49.568Z,3.77
2022-10-29T02:52:51.047Z,3.70
2022-10-29T02:57:52.759Z,4.40
2022-10-29T03:02:54.731Z,3.87
2022-10-29T03:07:56.548Z,4.03
2022-10-29T03:13:01.406Z,4.90
2022-10-29T03:18:03.713Z,4.17
2022-10-29T03:23:05.490Z,4.40
2022-10-29T03:28:07.071Z,4.03
2022-10-29T03:33:08.847Z,4.63
2022-10-29T03:38:10.689Z,4.30
2022-10-29T03:43:12.327Z,4.47
2022-10-29T03:48:14.040Z,4.53
2022-10-29T03:53:15.914Z,5.10
2022-10-29T03:58:17.688Z,4.50
2022-10-29T04:03:19.326Z,4.60
2022-10-29T04:08:21.045Z,5.10
2022-10-29T04:13:22.619Z,5.00
2022-10-29T04:18:24.696Z,5.07
2022-10-29T04:28:52.512Z,4.30
2022-10-29T04:33:54.150Z,4.50
2022-10-29T04:38:55.827Z,4.53
2022-10-29T04:43:57.544Z,4.40
2022-10-29T04:48:59.101Z,4.53
2022-10-29T04:54:00.660Z,4.50
2022-10-29T04:59:02.170Z,4.47
2022-10-29T05:04:03.807Z,4.07
2022-10-29T05:09:05.553Z,4.70
2022-10-29T05:14:07.126Z,4.00
2022-10-29T05:19:08.675Z,5.03
2022-10-29T05:24:10.319Z,4.83
2022-10-29T05:29:11.793Z,4.90
2022-10-29T05:34:13.262Z,4.43
2022-10-29T05:39:14.757Z,4.70
2022-10-29T05:44:16.387Z,4.43
2022-10-29T05:49:18.034Z,4.83
2022-10-29T05:54:19.731Z,4.77
2022-10-29T05:59:21.747Z,4.17
2022-10-29T06:04:23.549Z,4.60
2022-10-29T06:09:25.249Z,4.70
2022-10-29T06:14:26.932Z,5.07
2022-10-29T06:19:28.539Z,4.73
2022-10-29T06:24:30.186Z,5.63
2022-10-29T06:29:33.070Z,4.50
2022-10-29T06:34:34.762Z,4.87
2022-10-29T06:39:37.765Z,4.70
2022-10-29T06:44:39.455Z,4.30
2022-10-29T06:49:41.089Z,5.50
2022-10-29T06:54:42.604Z,4.77
2022-10-29T06:59:44.280Z,4.57
2022-10-29T07:04:45.847Z,4.57
2022-10-29T07:09:47.690Z,4.17
2022-10-29T07:14:49.192Z,6.30
2022-10-29T07:19:50.669Z,4.93
2022-10-29T07:24:54.780Z,4.67
2022-10-29T07:29:58.724Z,4.70
2022-10-29T07:35:00.462Z,4.00
2022-10-29T07:40:02.137Z,4.70
2022-10-29T07:45:04.038Z,4.50
2022-10-29T07:50:06.322Z,4.50
2022-10-29T07:55:08.919Z,4.30
2022-10-29T08:00:13.130Z,4.70
2022-10-29T08:05:14.907Z,4.70
2022-10-29T08:10:17.270Z,4.63
2022-10-29T08:15:19.552Z,4.70
2022-10-29T08:20:23.017Z,5.00
2022-10-29T08:25:26.166Z,5.10
2022-10-29T08:30:27.927Z,4.53
2022-10-29T08:35:29.729Z,4.70
2022-10-29T08:40:52.720Z,4.80
2022-10-29T08:45:55.413Z,4.43
2022-10-29T08:51:01.517Z,4.33
2022-10-29T08:56:06.707Z,4.30
2022-10-29T09:01:11.264Z,4.10
2022-10-29T09:06:32.096Z,4.33
2022-10-29T09:12:17.963Z,3.77
2022-10-29T09:17:27.072Z,4.20
2022-10-29T09:22:51.117Z,3.87
2022-10-29T09:28:17.334Z,4.40
2022-10-29T09:33:20.502Z,3.30
2022-10-29T09:38:26.321Z,3.90
2022-10-29T09:43:46.413Z,4.47
2022-10-29T09:49:26.643Z,3.80
2022-10-29T09:54:30.545Z,3.77
2022-10-29T09:59:41.104Z,3.60
2022-10-29T10:04:45.707Z,3.60
2022-10-29T10:10:01.275Z,3.47
2022-10-29T10:15:06.540Z,3.67
2022-10-29T10:20:33.418Z,3.50
2022-10-29T10:25:38.707Z,3.73
2022-10-29T10:30:40.552Z,3.70
2022-10-29T10:35:42.257Z,3.70
2022-10-29T10:40:43.963Z,3.93
2022-10-29T10:45:52.489Z,3.47
2022-10-29T10:51:10.348Z,3.70
2022-10-29T10:56:20.624Z,3.60
2022-10-29T11:01:43.038Z,3.53
2022-10-29T11:06:48.773Z,3.23
2022-10-29T11:12:06.765Z,3.17
2022-10-29T11:17:19.795Z,3.93
2022-10-29T11:22:28.060Z,3.93
2022-10-29T11:27:42.966Z,3.43
2022-10-29T11:33:10.484Z,3.53
2022-10-29T11:38:21.344Z,3.50
2022-10-29T11:43:22.949Z,3.30
2022-10-29T11:48:54.922Z,3.73
2022-10-29T11:54:34.275Z,3.17
2022-10-29T11:59:45.180Z,3.30
2022-10-29T12:05:03.483Z,3.10
2022-10-29T12:10:11.004Z,3.30
2022-10-29T12:15:32.687Z,3.30
2022-10-29T12:20:58.352Z,3.60
2022-10-29T12:26:35.359Z,3.60
2022-10-29T12:31:49.114Z,3.60
2022-10-29T12:37:14.138Z,3.53
2022-10-29T12:42:26.532Z,2.57
2022-10-29T12:47:41.824Z,3.33
2022-10-29T12:52:46.456Z,3.10
2022-10-29T12:57:47.996Z,3.17
2022-10-29T13:02:53.489Z,2.97
2022-10-29T13:07:58.149Z,2.83
2022-10-29T13:13:02.884Z,3.07
2022-10-29T13:18:25.634Z,3.03
2022-10-29T13:23:28.989Z,3.10
2022-10-29T13:28:30.352Z,3.97
2022-10-29T13:33:31.763Z,3.27
2022-10-29T13:39:04.785Z,3.10
2022-10-29T13:44:25.681Z,3.77
2022-10-29T13:49:30.591Z,3.40
2022-10-29T13:54:47.075Z,3.07
2022-10-29T14:00:07.294Z,3.80
2022-10-29T14:05:15.283Z,3.73
2022-10-29T14:10:32.273Z,3.40
2022-10-29T14:15:34.798Z,3.00
2022-10-29T14:20:36.560Z,3.43
2022-10-29T14:25:38.296Z,3.53
2022-10-29T14:30:40.262Z,2.90
2022-10-29T14:35:42.222Z,3.60
2022-10-29T14:40:45.022Z,2.90
2022-10-29T14:45:47.299Z,3.33
2022-10-29T14:50:56.361Z,3.50
2022-10-29T14:55:59.169Z,3.43
2022-10-29T15:01:05.909Z,3.10
2022-10-29T15:06:12.634Z,3.13
2022-10-29T15:11:34.414Z,3.23
2022-10-29T15:16:38.376Z,3.50
2022-10-29T15:21:43.247Z,2.77
2022-10-29T15:26:47.594Z,3.50
2022-10-29T15:31:50.537Z,2.80
2022-10-29T15:36:56.217Z,3.37
2022-10-29T15:42:01.335Z,3.20
2022-10-29T15:47:19.597Z,2.77
2022-10-29T15:52:22.402Z,2.90
2022-10-29T15:57:24.767Z,3.10
2022-10-29T16:02:26.661Z,3.07
2022-10-29T16:07:28.310Z,3.67
2022-10-29T16:12:30.813Z,3.33
2022-10-29T16:17:32.374Z,3.13
2022-10-29T16:22:34.011Z,3.33
2022-10-29T16:27:35.532Z,3.20
2022-10-29T16:32:37.312Z,3.27
2022-10-29T16:37:39.142Z,3.33
2022-10-29T16:42:41.094Z,3.40
2022-10-29T16:47:43.548Z,3.30
2022-10-29T16:52:45.350Z,3.33
2022-10-29T16:57:47.247Z,3.43
2022-10-29T17:02:48.918Z,3.83
2022-10-29T17:07:54.290Z,3.93
2022-10-29T17:12:56.488Z,4.10
2022-10-29T17:17:58.606Z,3.77
2022-10-29T17:23:00.680Z,4.30
2022-10-29T17:28:02.546Z,4.40
2022-10-29T17:33:04.198Z,4.40
2022-10-29T17:38:05.863Z,4.47
2022-10-29T17:43:07.566Z,4.47
2022-10-29T17:48:09.296Z,4.07
2022-10-29T17:53:10.885Z,4.17
2022-10-29T17:58:17.733Z,4.20
2022-10-29T18:03:19.988Z,4.13
2022-10-29T18:08:21.946Z,4.63
2022-10-29T18:13:23.460Z,3.73
2022-10-29T18:18:25.115Z,4.37
2022-10-29T18:23:26.588Z,5.50
2022-10-29T18:28:28.728Z,5.10
2022-10-29T18:33:30.353Z,5.03
2022-10-29T18:38:32.062Z,4.83
2022-10-29T18:43:37.356Z,4.27
2022-10-29T18:48:40.994Z,4.10
2022-10-29T18:53:42.945Z,4.77
2022-10-29T18:58:45.078Z,4.60
2022-10-29T19:03:54.616Z,5.03
2022-10-29T19:08:56.879Z,5.80
2022-10-29T19:14:03.280Z,4.53
2022-10-29T19:19:07.358Z,4.50
2022-10-29T19:24:13.800Z,4.43
2022-10-29T19:29:15.614Z,4.73
2022-10-29T19:34:17.375Z,4.57
2022-10-29T19:39:19.019Z,4.60
2022-10-29T19:44:20.687Z,4.27
2022-10-29T19:49:22.475Z,4.20
2022-10-29T19:54:24.101Z,4.43
2022-10-29T19:59:25.914Z,4.53
2022-10-29T20:04:27.647Z,4.30
2022-10-29T20:09:30.359Z,4.33
2022-10-29T20:14:35.579Z,4.33
2022-10-29T20:19:37.133Z,4.60
2022-10-29T20:24:39.154Z,3.67
2022-10-29T20:29:40.774Z,4.13
2022-10-29T20:34:42.598Z,4.20
2022-10-29T20:39:44.184Z,3.90
2022-10-29T20:44:46.026Z,3.50
2022-10-29T20:49:47.805Z,3.73
2022-10-29T20:54:49.434Z,3.77
2022-10-29T20:59:51.406Z,3.80
2022-10-29T21:04:52.998Z,3.63
2022-10-29T21:09:54.783Z,3.87
2022-10-29T21:14:56.716Z,3.50
2022-10-29T21:19:58.506Z,4.20
2022-10-29T21:25:00.170Z,4.10
2022-10-29T21:30:02.055Z,3.70
2022-10-29T21:35:03.748Z,4.20
2022-10-29T21:40:06.473Z,3.83
2022-10-29T21:45:08.543Z,4.33
2022-10-29T21:50:10.603Z,4.27
2022-10-29T21:55:12.140Z,4.50
2022-10-29T22:00:15.211Z,4.03
2022-10-29T22:05:16.909Z,3.97
2022-10-29T22:10:18.532Z,3.90
2022-10-29T22:15:20.432Z,4.37
2022-10-29T22:20:21.944Z,4.17
2022-10-29T22:25:23.429Z,3.40
2022-10-29T22:30:25.106Z,3.97
2022-10-29T22:35:26.623Z,4.20
2022-10-29T22:40:28.102Z,3.67
2022-10-29T22:45:29.571Z,3.73
2022-10-29T22:50:31.111Z,3.30
2022-10-29T22:55:32.810Z,3.53
2022-10-29T23:00:34.498Z,3.73
2022-10-29T23:05:36.309Z,4.47
2022-10-29T23:10:37.929Z,3.67
2022-10-29T23:15:39.433Z,3.70
2022-10-29T23:20:41.000Z,4.07
2022-10-29T23:25:43.222Z,4.00
2022-10-29T23:30:52.483Z,4.00
2022-10-29T23:35:55.115Z,3.60
2022-10-29T23:40:56.899Z,3.67
2022-10-29T23:45:58.422Z,3.67
2022-10-29T23:50:59.894Z,3.40
2022-10-29T23:56:01.378Z,3.30
